createdAt,value
2023-05-02T00:03:22.107Z,98206.13
2023-05-02T00:08:26.452Z,98200.28
2023-05-02T00:13:30.500Z,98200.28
2023-05-02T00:18:35.786Z,98198.50
2023-05-02T00:23:39.650Z,98198.03
2023-05-02T00:28:43.610Z,98196.41
2023-05-02T00:33:48.986Z,98194.81
2023-05-02T00:38:53.216Z,98188.94
2023-05-02T00:43:57.372Z,98183.91
2023-05-02T00:49:03.292Z,98179.34
2023-05-02T00:54:07.320Z,98183.41
2023-05-02T00:59:12.238Z,98174.34
2023-05-02T01:04:29.005Z,98174.84
2023-05-02T01:09:41.084Z,98180.84
2023-05-02T01:14:48.263Z,98175.31
2023-05-02T01:19:56.354Z,98172.72
2023-05-02T01:25:06.416Z,98177.75
2023-05-02T01:30:13.221Z,98175.31
2023-05-02T01:35:18.218Z,98179.09
2023-05-02T01:40:23.011Z,98174.06
2023-05-02T01:45:29.224Z,98169.50
2023-05-02T01:50:33.315Z,98157.78
2023-05-02T01:55:38.256Z,98157.44
2023-05-02T02:00:45.409Z,98156.13
2023-05-02T02:05:51.101Z,98149.59
2023-05-02T02:10:59.096Z,98143.44
2023-05-02T02:16:07.313Z,98141.13
2023-05-02T02:21:13.385Z,98146.78
2023-05-02T02:26:19.192Z,98144.66
2023-05-02T02:31:25.967Z,98149.22
2023-05-02T02:36:34.395Z,98142.84
2023-05-02T02:41:43.213Z,98146.28
2023-05-02T02:46:52.903Z,98144.94
2023-05-02T02:52:03.914Z,98147.38
2023-05-02T02:57:16.506Z,98148.84
2023-05-02T03:02:24.268Z,98150.13
2023-05-02T03:07:29.572Z,98144.06
2023-05-02T03:12:35.207Z,98144.03
2023-05-02T03:17:42.330Z,98144.31
2023-05-02T03:22:46.575Z,98152.88
2023-05-02T03:27:50.733Z,98164.91
2023-05-02T03:32:56.268Z,98158.00
2023-05-02T03:38:00.494Z,98151.13
2023-05-02T03:43:04.795Z,98158.59
2023-05-02T03:48:11.691Z,98165.94
2023-05-02T03:53:16.324Z,98165.78
2023-05-02T03:58:28.777Z,98162.16
2023-05-02T04:03:34.931Z,98164.06
2023-05-02T04:08:39.186Z,98170.06
2023-05-02T04:13:43.421Z,98167.84
2023-05-02T04:18:49.623Z,98182.44
2023-05-02T04:23:54.362Z,98177.97
2023-05-02T04:28:58.517Z,98179.34
2023-05-02T04:34:04.477Z,98188.00
2023-05-02T04:39:14.227Z,98187.25
2023-05-02T04:44:24.866Z,98194.25
2023-05-02T04:49:32.182Z,98191.94
2023-05-02T04:54:36.138Z,98206.19
2023-05-02T04:59:40.065Z,98204.00
2023-05-02T05:04:46.571Z,98208.63
2023-05-02T05:09:53.285Z,98213.91
2023-05-02T05:14:59.269Z,98223.13
2023-05-02T05:20:09.575Z,98214.63
2023-05-02T05:25:15.342Z,98221.81
2023-05-02T05:30:21.495Z,98228.84
2023-05-02T05:35:27.239Z,98236.69
2023-05-02T05:40:32.404Z,98240.88
2023-05-02T05:45:37.029Z,98242.59
2023-05-02T05:50:43.944Z,98243.19
2023-05-02T05:55:48.688Z,98238.25
2023-05-02T06:00:52.740Z,98243.41
2023-05-02T06:05:58.326Z,98246.75
2023-05-02T06:11:03.133Z,98259.56
2023-05-02T06:16:07.660Z,98257.84
2023-05-02T06:21:13.927Z,98266.41
2023-05-02T06:26:17.993Z,98271.88
2023-05-02T06:31:22.054Z,98288.06
2023-05-02T06:36:27.802Z,98274.94
2023-05-02T06:41:32.067Z,98281.78
2023-05-02T06:46:35.952Z,98284.34
2023-05-02T06:51:41.453Z,98287.25
2023-05-02T06:56:45.685Z,98299.38
2023-05-02T07:01:49.640Z,98306.56
2023-05-02T07:06:55.145Z,98309.50
2023-05-02T07:11:59.099Z,98307.94
2023-05-02T07:17:03.049Z,98317.16
2023-05-02T07:22:08.851Z,98320.56
2023-05-02T07:27:13.948Z,98326.34
2023-05-02T07:32:17.890Z,98340.47
2023-05-02T07:37:23.431Z,98343.38
2023-05-02T07:42:30.449Z,98348.28
2023-05-02T07:47:34.578Z,98360.13
2023-05-02T07:52:40.019Z,98358.75
2023-05-02T07:57:44.007Z,98376.34
2023-05-02T08:02:47.990Z,98371.50
2023-05-02T08:07:53.384Z,98379.00
2023-05-02T08:12:57.438Z,98382.91
2023-05-02T08:18:01.565Z,98383.50
2023-05-02T08:23:06.965Z,98385.25
2023-05-02T08:28:11.095Z,98387.19
2023-05-02T08:33:15.054Z,98399.25
2023-05-02T08:38:20.310Z,98389.19
2023-05-02T08:43:24.255Z,98404.41
2023-05-02T08:48:28.517Z,98416.19
2023-05-02T08:53:35.687Z,98416.22
2023-05-02T08:58:40.928Z,98415.78
2023-05-02T09:03:45.804Z,98422.91
2023-05-02T09:08:52.693Z,98420.78
2023-05-02T09:13:58.942Z,98434.59
2023-05-02T09:19:02.824Z,98431.34
2023-05-02T09:24:18.259Z,98426.72
2023-05-02T09:29:22.999Z,98436.00
2023-05-02T09:34:26.963Z,98447.84
2023-05-02T09:39:32.270Z,98445.50
2023-05-02T09:44:40.233Z,98452.66
2023-05-02T09:49:46.532Z,98456.59
2023-05-02T09:54:52.838Z,98469.31
2023-05-02T09:59:57.500Z,98472.72
2023-05-02T10:05:02.944Z,98469.00
2023-05-02T10:10:12.865Z,98474.06
2023-05-02T10:15:18.155Z,98461.31
2023-05-02T10:20:28.200Z,98474.06
2023-05-02T10:25:34.342Z,98474.22
2023-05-02T10:30:38.812Z,98485.06
2023-05-02T10:35:45.653Z,98491.25
2023-05-02T10:40:56.938Z,98494.56
2023-05-02T10:46:02.092Z,98500.94
2023-05-02T10:51:06.354Z,98499.13
2023-05-02T10:56:17.100Z,98502.75
2023-05-02T11:01:40.844Z,98502.88
2023-05-02T11:07:20.684Z,98503.69
2023-05-02T11:12:48.901Z,98498.91
2023-05-02T11:18:02.399Z,98512.72
2023-05-02T11:23:26.057Z,98520.50
2023-05-02T11:28:43.470Z,98524.78
2023-05-02T11:33:56.382Z,98536.25
2023-05-02T11:39:00.998Z,98539.13
2023-05-02T11:44:06.612Z,98544.53
2023-05-02T11:49:14.746Z,98547.78
2023-05-02T11:54:22.931Z,98561.03
2023-05-02T11:59:28.683Z,98568.13
2023-05-02T12:04:32.836Z,98560.81
2023-05-02T12:09:37.079Z,98561.75
2023-05-02T12:14:42.497Z,98576.97
2023-05-02T12:19:46.693Z,98579.59
2023-05-02T12:24:50.791Z,98587.59
2023-05-02T12:29:57.621Z,98590.22
2023-05-02T12:35:03.144Z,98585.63
2023-05-02T12:40:16.643Z,98579.59
2023-05-02T12:45:22.655Z,98584.13
2023-05-02T12:50:37.584Z,98590.22
2023-05-02T12:55:41.651Z,98575.38
2023-05-02T13:00:47.929Z,98576.63
2023-05-02T13:05:55.294Z,98576.28
2023-05-02T13:10:59.305Z,98582.59
2023-05-02T13:16:04.928Z,98591.22
2023-05-02T13:21:09.962Z,98591.53
2023-05-02T13:26:13.886Z,98583.44
2023-05-02T13:31:19.604Z,98584.47
2023-05-02T13:36:24.451Z,98584.59
2023-05-02T13:41:28.669Z,98588.59
2023-05-02T13:46:37.519Z,98586.84
2023-05-02T13:51:41.784Z,98587.75
2023-05-02T13:56:45.893Z,98581.16
2023-05-02T14:01:51.939Z,98588.59
2023-05-02T14:06:55.935Z,98589.09
2023-05-02T14:11:59.894Z,98589.75
2023-05-02T14:17:05.582Z,98583.25
2023-05-02T14:22:09.530Z,98583.88
2023-05-02T14:27:18.177Z,98590.56
2023-05-02T14:32:23.958Z,98590.38
2023-05-02T14:37:27.792Z,98591.03
2023-05-02T14:42:31.911Z,98587.06
2023-05-02T14:47:37.485Z,98585.09
2023-05-02T14:52:41.579Z,98582.88
2023-05-02T14:57:45.809Z,98575.97
2023-05-02T15:02:51.360Z,98579.22
2023-05-02T15:07:55.253Z,98586.72
2023-05-02T15:12:59.270Z,98605.38
2023-05-02T15:18:05.046Z,98615.09
2023-05-02T15:23:09.292Z,98603.97
2023-05-02T15:28:13.548Z,98621.19
2023-05-02T15:33:19.189Z,98623.78
2023-05-02T15:38:23.349Z,98624.84
2023-05-02T15:43:28.025Z,98630.28
2023-05-02T15:48:34.955Z,98625.19
2023-05-02T15:53:44.134Z,98632.09
2023-05-02T15:58:48.420Z,98640.16
2023-05-02T16:03:53.676Z,98641.75
2023-05-02T16:08:57.546Z,98653.06
2023-05-02T16:14:01.708Z,98660.31
2023-05-02T16:19:12.583Z,98654.59
2023-05-02T16:24:16.654Z,98669.56
2023-05-02T16:29:20.684Z,98663.84
2023-05-02T16:34:26.065Z,98656.56
2023-05-02T16:39:30.389Z,98662.59
2023-05-02T16:44:34.603Z,98661.53
2023-05-02T16:49:40.476Z,98653.25
2023-05-02T16:54:44.577Z,98660.09
2023-05-02T16:59:49.138Z,98665.28
2023-05-02T17:04:54.363Z,98670.06
2023-05-02T17:09:58.235Z,98668.22
2023-05-02T17:15:03.588Z,98671.19
2023-05-02T17:20:11.153Z,98683.25
2023-05-02T17:25:15.263Z,98683.78
2023-05-02T17:30:19.429Z,98680.91
2023-05-02T17:35:24.956Z,98687.72
2023-05-02T17:40:29.827Z,98687.84
2023-05-02T17:45:33.908Z,98693.75
2023-05-02T17:50:39.430Z,98705.28
2023-05-02T17:55:43.337Z,98738.09
2023-05-02T18:00:47.216Z,98745.41
2023-05-02T18:05:52.638Z,98751.28
2023-05-02T18:10:56.954Z,98757.38
2023-05-02T18:16:01.948Z,98751.66
2023-05-02T18:21:10.510Z,98759.31
2023-05-02T18:26:15.174Z,98753.53
2023-05-02T18:31:19.729Z,98762.28
2023-05-02T18:36:29.444Z,98759.53
2023-05-02T18:41:33.314Z,98768.78
2023-05-02T18:46:37.560Z,98775.75
2023-05-02T18:51:43.064Z,98780.03
2023-05-02T18:56:48.033Z,98777.31
2023-05-02T19:01:52.381Z,98776.13
2023-05-02T19:06:57.918Z,98781.91
2023-05-02T19:12:01.980Z,98782.06
2023-05-02T19:17:06.223Z,98785.69
2023-05-02T19:22:11.805Z,98787.13
2023-05-02T19:27:15.984Z,98800.41
2023-05-02T19:32:21.707Z,98807.78
2023-05-02T19:37:27.321Z,98810.75
2023-05-02T19:42:31.186Z,98810.28
2023-05-02T19:47:35.293Z,98819.19
2023-05-02T19:52:41.653Z,98819.88
2023-05-02T19:57:45.698Z,98823.72
2023-05-02T20:02:51.315Z,98827.84
2023-05-02T20:07:56.922Z,98838.81
2023-05-02T20:13:00.803Z,98849.00
2023-05-02T20:18:04.998Z,98840.34
2023-05-02T20:23:10.412Z,98845.00
2023-05-02T20:28:14.310Z,98850.22
2023-05-02T20:33:18.769Z,98856.78
2023-05-02T20:38:24.986Z,98856.13
2023-05-02T20:43:29.242Z,98858.06
2023-05-02T20:48:33.974Z,98850.56
2023-05-02T20:53:39.527Z,98860.38
2023-05-02T20:58:43.395Z,98860.53
2023-05-02T21:03:47.485Z,98864.94
2023-05-02T21:08:55.127Z,98884.88
2023-05-02T21:13:58.958Z,98877.22
2023-05-02T21:19:03.139Z,98883.56
2023-05-02T21:24:09.778Z,98879.94
2023-05-02T21:29:14.977Z,98879.94
2023-05-02T21:34:19.132Z,98881.41
2023-05-02T21:39:26.184Z,98885.31
2023-05-02T21:44:30.145Z,98876.69
2023-05-02T21:49:34.452Z,98885.31
2023-05-02T21:54:39.862Z,98883.84
2023-05-02T21:59:43.948Z,98890.53
2023-05-02T22:04:48.291Z,98894.78
2023-05-02T22:09:53.896Z,98892.34
2023-05-02T22:14:57.988Z,98896.56
2023-05-02T22:20:02.677Z,98904.41
2023-05-02T22:25:08.877Z,98903.06
2023-05-02T22:30:13.040Z,98904.06
2023-05-02T22:35:18.104Z,98906.66
2023-05-02T22:40:23.500Z,98913.22
2023-05-02T22:45:27.985Z,98914.50
2023-05-02T22:50:31.959Z,98920.38
2023-05-02T22:55:39.452Z,98922.19
2023-05-02T23:00:46.714Z,98924.47
2023-05-02T23:05:50.891Z,98925.63
2023-05-02T23:10:56.347Z,98929.06
2023-05-02T23:16:00.595Z,98925.97
2023-05-02T23:21:05.100Z,98927.44
2023-05-02T23:26:10.621Z,98929.25
2023-05-02T23:31:14.673Z,98924.66
2023-05-02T23:36:19.000Z,98928.59
2023-05-02T23:41:26.321Z,98934.16
2023-05-02T23:46:30.252Z,98927.59
2023-05-02T23:51:34.482Z,98926.94
2023-05-02T23:56:39.959Z,98927.91
